Check time and date!



--------------------------------------


--------------------------------------


--------------------------------------


--------------------------------------


--------------------------------------


--------------------------------------
METAR LGAD 272150Z 00000KT CAVOK 11/08 Q1020
METAR LGAL 272150Z VRB03KT 9999 FEW025 10/07 Q1025
METAR LGAV 272150Z 35007KT 9999 FEW030 15/06 Q1023 NOSIG
METAR LGBL 272150Z 27007KT 9999 FEW040 09/05 Q1025
METAR LGEL 272150Z AUTO 32004KT 280V030 //// // ////// 14/07 Q1021 RE//
METAR LGIO 272150Z AUTO VRB01KT //// // ////// 05/02 Q1022 RE//
METAR LGIR 272150Z 15004KT 9999 FEW018 BKN025 BKN080 17/14 Q1019 NOSIG
METAR LGKL 272150Z AUTO 33006KT 290V350 //// // ////// 13/07 Q1020 RE//
METAR LGKO 272150Z 33004KT 9999 FEW018 18/11 Q1018
METAR LGKP 272200Z AUTO 31009KT //// // ////// 18/13 Q1017 RE//
METAR LGKR 272150Z 00000KT 9999 FEW025 13/11 Q1019 NOSIG
METAR LGKZ 272150Z AUTO VRB03KT //// // ////// 05/01 Q1026 RE//
METAR LGLM 272150Z 05012G22KT CAVOK 14/09 Q1023
METAR LGLR 272150Z 00000KT 9999 FEW040 07/05 Q1026 BLU
METAR LGPA 272150Z AUTO 01015KT //// // ////// 18/12 Q1020 RE//
METAR LGPZ 272150Z AUTO VRB03KT //// // ////// 15/03 Q1020 RE//
METAR LGRP 272150Z 21004KT 9999 SCT016 19/15 Q1017 NOSIG
METAR LGRX 272150Z VRB03KT CAVOK 13/06 Q1020
METAR LGSA 272150Z 07005KT 9999 SCT018 BKN025 15/13 Q1019
METAR LGSO 272150Z AUTO 35016KT 310V010 //// // ////// 16/11 Q1021 RE//
METAR LGSR 272150Z 36012KT 9999 SCT025 17/12 Q1019
METAR LGTG 272150Z 33006KT 9999 FEW020 SCT030 14/06 Q1024 BLU
METAR LGTS 272150Z 10005KT CAVOK 08/06 Q1026 NOSIG

--------------------------------------
TAF LGAD 272000Z 2721/2806 04010KT 9999 FEW025
TAF LGAL 272000Z 2721/2806 02012KT 9999 FEW025 BECMG 2804/2806 02022KT
TAF LGAV 271700Z 2718/2818 01015KT 9999 FEW020 TEMPO 2804/2818 01018G28KT
TAF LGBL 272000Z 2721/2806 35008KT 9999 BKN030
TAF LGEL 271700Z 2718/2818 35010KT 9999 FEW025 TEMPO 2804/2812 36012G22KT
TAF LGHI 272000Z 2721/2806 36010KT 9999 FEW020
TAF LGIO 272000Z 2721/2806 VRB03KT 9999 FEW030 BECMG 2800/2802 SCT005 PROB40 2802/2806 5000 BR SCT003
TAF LGIR 271700Z 2718/2818 36010KT 9999 FEW018 BKN025 PROB30 TEMPO 2718/2812 5000 RA FEW012 FEW018TCU BKN020
TAF LGKC 272000Z 2721/2806 05025G35KT 9999 FEW020 SCT030 PROB30 TEMPO 2803/2806 5000 RA SCT012 FEW018TCU BKN020
TAF LGKF 272000Z 2721/2806 04014KT 9999 FEW016
TAF LGKL 272000Z 2721/2806 33008KT 9999 FEW025
TAF LGKO 271700Z 2718/2818 36010KT 9999 FEW018
TAF LGKP 272000Z 2721/2806 32016KT 9999 SCT025
TAF LGKR 271700Z 2718/2818 VRB05KT 9999 FEW020
TAF LGKV 271700Z 2718/2818 06010KT 9999 FEW025 TEMPO 2800/2806 SCT025
TAF LGLM 272000Z 2721/2806 05017G28KT 9999 FEW030
TAF LGLR 272000Z 2721/2806 VRB03KT 9999 FEW030
TAF LGMK 272000Z 2721/2806 36020KT 9999 FEW010 SCT020 TEMPO 2721/2724 36020G30KT
TAF LGMT 272000Z 2721/2806 35010KT 9999 FEW020
TAF LGPZ 271700Z 2718/2818 07010KT 9999 FEW020
TAF LGRP 271700Z 2718/2818 VRB05KT 9999 SCT016 PROB30 TEMPO 2718/2721 5000 RA SCT015 FEW018TCU BKN020
TAF LGRX 272000Z 2721/2806 06012KT 9999 FEW025
TAF LGSA 271700Z 2718/2818 06010KT 9999 SCT018 BKN025 PROB30 TEMPO 2718/2812 5000 RA FEW012 FEW018TCU OVC020
TAF LGSK 272000Z 2721/2806 36010KT 9999 FEW015 BKN030
TAF LGSM 272000Z 2721/2806 01010KT 9999 FEW020
TAF LGSR 271700Z 2718/2818 36010KT 9999 SCT025
TAF LGST 272000Z 2721/2806 32010KT 9999 FEW018 SCT025 BKN070
TAF LGSY 272000Z 2721/2806 04015G25KT 9999 SCT025
TAF LGTG 272000Z 2721/2806 01012KT 9999 SCT030
TAF LGTL 272000Z 2721/2806 35008KT 9999 FEW015 SCT020 BKN080
TAF LGTS 271700Z 2718/2818 VRB03KT 9999 FEW025 TEMPO 2800/2808 SCT025 PROB40 2802/2808 3000 BR SCT006
TAF LGZA 272000Z 2721/2806 05012KT 9999 FEW020